Time;durP1;ratioP1;P1;durP2;ratioP2;P2;SDS_P1;SDS_P2;PMS_P1;PMS_P2;Temp;Humidity;BMP_temperature;BMP_pressure;BME280_temperature;BME280_humidity;BME280_pressure;Samples;Min_cycle;Max_cycle;Signal;HPM_P1;HPM_P2
2021/03/09 00:00:07;;;;;;;;;;;;;;;1.74;62.26;101178.88;1776964;80;20487;-51
2021/03/09 00:02:34;;;;;;;;;;;;;;;1.75;61.44;101166.97;1776856;80;21386;-52
2021/03/09 00:05:03;;;;;;;;;;;;;;;1.77;60.72;101177.57;1776747;80;20271;-51
2021/03/09 00:07:30;;;;;;;;;;;;;;;1.78;60.01;101183.31;1776789;80;20232;-52
2021/03/09 00:09:57;;;;;;;;;;;;;;;1.78;58.97;101188.17;1776799;80;20279;-51
2021/03/09 00:12:25;;;;;;;;;;;;;;;1.80;59.04;101185.52;1776839;80;20212;-51
2021/03/09 00:14:52;;;;;;;;;;;;;;;1.81;58.57;101189.94;1776768;80;21460;-51
2021/03/09 00:17:21;;;;;;;;;;;;;;;1.82;58.40;101170.55;1775769;80;20243;-52
2021/03/09 00:19:49;;;;;;;;;;;;;;;1.82;57.82;101165.27;1776821;80;20748;-50
2021/03/09 00:22:16;;;;;;;;;;;;;;;1.84;57.68;101174.09;1776853;80;20223;-51
2021/03/09 00:24:43;;;;;;;;;;;;;;;1.83;57.44;101161.33;1776679;80;20219;-51
2021/03/09 00:27:10;;;;;;;;;;;;;;;1.87;57.22;101167.50;1776834;80;21365;-50
2021/03/09 00:29:38;;;;;;;;;;;;;;;1.88;57.14;101167.98;1776639;80;20228;-51
2021/03/09 00:32:07;;;;;;;;;;;;;;;1.88;56.44;101181.20;1776772;80;20220;-50
2021/03/09 00:34:37;;;;;;;;;;;;;;;1.88;56.77;101181.20;1776576;80;20286;-51
2021/03/09 00:37:04;;;;;;;;;;;;;;;1.83;57.40;101180.25;1776816;80;20244;-51
2021/03/09 00:39:32;;;;;;;;;;;;;;;1.79;57.55;101196.97;1776725;80;21630;-51
2021/03/09 00:41:59;;;;;;;;;;;;;;;1.76;57.90;101183.73;1776721;80;20267;-50
2021/03/09 00:44:27;;;;;;;;;;;;;;;1.71;58.08;101181.05;1775979;80;20240;-51
2021/03/09 00:46:55;;;;;;;;;;;;;;;1.67;58.40;101181.47;1775146;81;20224;-51
2021/03/09 00:49:22;;;;;;;;;;;;;;;1.64;58.38;101166.02;1775142;81;20224;-50
2021/03/09 00:51:51;;;;;;;;;;;;;;;1.62;58.12;101166.44;1771779;81;21376;-51
2021/03/09 00:54:19;;;;;;;;;;;;;;;1.61;58.44;101176.11;1771556;81;20216;-50
2021/03/09 00:56:46;;;;;;;;;;;;;;;1.61;58.34;101180.52;1771519;81;20223;-52
2021/03/09 00:59:13;;;;;;;;;;;;;;;1.61;57.90;101189.78;1771576;81;20244;-52
2021/03/09 01:01:41;;;;;;;;;;;;;;;1.59;57.57;101169.92;1771529;81;20219;-51
2021/03/09 01:04:08;;;;;;;;;;;;;;;1.60;57.61;101174.34;1771599;81;21353;-51
2021/03/09 01:06:35;;;;;;;;;;;;;;;1.61;57.73;101171.28;1771466;81;20232;-50
2021/03/09 01:09:03;;;;;;;;;;;;;;;1.61;57.84;101172.14;1771617;81;20220;-50
2021/03/09 01:11:30;;;;;;;;;;;;;;;1.60;58.00;101165.09;1771618;81;20542;-50
2021/03/09 01:13:57;;;;;;;;;;;;;;;1.59;57.90;101173.89;1771604;81;20486;-51
2021/03/09 01:16:24;;;;;;;;;;;;;;;1.60;57.94;101180.08;1771725;81;22088;-50
2021/03/09 01:18:51;;;;;;;;;;;;;;;1.59;57.66;101169.92;1771545;81;20704;-51
2021/03/09 01:21:18;;;;;;;;;;;;;;;1.59;57.73;101173.02;1771656;81;20323;-51
2021/03/09 01:23:47;;;;;;;;;;;;;;;1.59;57.20;101168.61;1771500;81;20287;-50
2021/03/09 01:26:14;;;;;;;;;;;;;;;1.59;56.82;101163.32;1771634;81;20300;-50
2021/03/09 01:28:41;;;;;;;;;;;;;;;1.60;56.95;101157.16;1771496;81;21404;-50
2021/03/09 01:31:10;;;;;;;;;;;;;;;1.61;56.90;101164.22;1771498;81;20240;-51
2021/03/09 01:33:37;;;;;;;;;;;;;;;1.63;57.09;101178.78;1735687;81;20217;-51
2021/03/09 01:36:07;;;;;;;;;;;;;;;1.61;57.16;101169.50;1771584;81;20354;-50
2021/03/09 01:38:34;;;;;;;;;;;;;;;1.60;57.63;101178.75;1771432;81;20229;-51
2021/03/09 01:41:01;;;;;;;;;;;;;;;1.59;57.81;101180.50;1771569;81;21278;-51
2021/03/09 01:43:31;;;;;;;;;;;;;;;1.57;57.69;101167.71;1771476;81;20221;-50
2021/03/09 01:45:59;;;;;;;;;;;;;;;1.55;57.98;101170.78;1771231;81;20220;-50
2021/03/09 01:48:37;;;;;;;;;;;;;;;1.53;57.91;101173.84;1768477;81;20221;-51
2021/03/09 01:51:04;;;;;;;;;;;;;;;1.51;56.76;101176.91;1766592;80;20315;-52
2021/03/09 01:53:32;;;;;;;;;;;;;;;1.50;56.49;101166.77;1760484;81;21360;-51
2021/03/09 01:55:59;;;;;;;;;;;;;;;1.50;56.30;101165.44;1760320;81;20272;-51
2021/03/09 01:58:27;;;;;;;;;;;;;;;1.52;55.54;101172.08;1760498;81;20217;-51
2021/03/09 02:00:54;;;;;;;;;;;;;;;1.52;54.60;101172.08;1761948;81;20225;-51
2021/03/09 02:03:21;;;;;;;;;;;;;;;1.54;54.89;101170.33;1760439;81;20225;-51
2021/03/09 02:05:49;;;;;;;;;;;;;;;1.55;55.31;101174.73;1760442;81;21773;-51
2021/03/09 02:08:17;;;;;;;;;;;;;;;1.54;55.92;101195.44;1760307;81;20241;-51
2021/03/09 02:10:44;;;;;;;;;;;;;;;1.53;56.58;101188.38;1760422;81;20224;-50
2021/03/09 02:13:37;;;;;;;;;;;;;;;1.50;58.05;101213.46;1760279;81;21318;-51
2021/03/09 02:16:08;;;;;;;;;;;;;;;1.41;59.73;101212.48;1760494;81;20240;-50
2021/03/09 02:19:00;;;;;;;;;;;;;;;1.31;60.12;101223.84;1760354;81;21435;-50
2021/03/09 02:22:05;;;;;;;;;;;;;;;1.21;60.92;101216.66;1760359;81;20237;-51
2021/03/09 02:24:47;;;;;;;;;;;;;;;1.08;61.62;101208.62;1760417;81;20217;-50
2021/03/09 02:27:37;;;;;;;;;;;;;;;0.99;63.64;101213.77;1760372;81;20220;-51
2021/03/09 02:30:21;;;;;;;;;;;;;;;0.91;64.87;101214.13;1760475;81;20225;-51
2021/03/09 02:32:52;;;;;;;;;;;;;;;0.83;65.15;101204.36;1760442;81;21469;-51
2021/03/09 02:35:23;;;;;;;;;;;;;;;0.75;65.08;101205.12;1760423;81;20145;-51
2021/03/09 02:37:50;;;;;;;;;;;;;;;0.73;65.23;101207.73;1760416;81;20457;-51
2021/03/09 02:40:18;;;;;;;;;;;;;;;0.72;65.18;101220.48;1760421;81;20221;-51
2021/03/09 02:42:49;;;;;;;;;;;;;;;0.70;65.04;101212.98;1760460;81;20220;-51
2021/03/09 02:45:17;;;;;;;;;;;;;;;0.70;65.13;101212.98;1767206;81;21312;-51
2021/03/09 02:47:46;;;;;;;;;;;;;;;0.70;65.03;101214.30;1768763;81;20216;-51
2021/03/09 02:50:14;;;;;;;;;;;;;;;0.69;64.86;101213.84;1768833;81;20311;-52
2021/03/09 02:52:41;;;;;;;;;;;;;;;0.70;64.92;101212.98;1774456;81;20271;-51
2021/03/09 02:55:10;;;;;;;;;;;;;;;0.70;65.19;101216.52;1774773;81;20273;-51
2021/03/09 02:57:39;;;;;;;;;;;;;;;0.74;65.25;101213.92;1747206;81;22254;-52
2021/03/09 03:00:07;;;;;;;;;;;;;;;0.75;65.24;101204.67;1774617;81;20229;-51
2021/03/09 03:02:36;;;;;;;;;;;;;;;0.76;64.85;101217.46;1774789;81;20495;-52
2021/03/09 03:05:06;;;;;;;;;;;;;;;0.75;64.75;101208.64;1774711;81;20240;-51
2021/03/09 03:07:33;;;;;;;;;;;;;;;0.74;64.72;101209.51;1746763;81;20488;-51
2021/03/09 03:10:02;;;;;;;;;;;;;;;0.74;64.63;101216.11;1774779;81;21238;-50
2021/03/09 03:12:32;;;;;;;;;;;;;;;0.75;64.66;101215.23;1774606;81;20223;-51
2021/03/09 03:15:00;;;;;;;;;;;;;;;0.75;64.68;101213.92;1774968;81;20523;-51
2021/03/09 03:17:29;;;;;;;;;;;;;;;0.77;64.73;101212.63;1774877;81;20376;-51
2021/03/09 03:19:57;;;;;;;;;;;;;;;0.77;64.68;101213.50;1774958;81;20487;-50
2021/03/09 03:22:24;;;;;;;;;;;;;;;0.78;64.61;101211.34;1775022;81;23098;-51
2021/03/09 03:24:51;;;;;;;;;;;;;;;0.81;64.59;101211.80;1774955;81;20295;-50
2021/03/09 03:27:19;;;;;;;;;;;;;;;0.82;64.74;101214.47;1774933;81;20323;-51
2021/03/09 03:29:47;;;;;;;;;;;;;;;0.83;64.72;101216.24;1775007;81;20287;-51
2021/03/09 03:32:15;;;;;;;;;;;;;;;0.86;64.67;101225.94;1774830;81;20267;-51
2021/03/09 03:34:44;;;;;;;;;;;;;;;0.87;64.61;101230.80;1774886;81;21381;-51
2021/03/09 03:37:13;;;;;;;;;;;;;;;0.85;64.47;101236.05;1774896;81;20648;-51
2021/03/09 03:39:41;;;;;;;;;;;;;;;0.82;64.13;101243.92;1774873;81;20475;-50
2021/03/09 03:42:08;;;;;;;;;;;;;;;0.79;64.13;101242.16;1774966;81;20216;-51
2021/03/09 03:44:36;;;;;;;;;;;;;;;0.77;64.30;101242.53;1775957;80;20232;-51
2021/03/09 03:47:03;;;;;;;;;;;;;;;0.76;64.14;101240.77;1777120;80;21348;-51
2021/03/09 03:49:32;;;;;;;;;;;;;;;0.73;64.04;101240.73;1776962;80;20224;-51
2021/03/09 03:52:21;;;;;;;;;;;;;;;0.69;64.14;101242.47;1773503;80;20241;-50
2021/03/09 03:54:52;;;;;;;;;;;;;;;0.65;64.06;101252.50;1771673;81;20224;-50
2021/03/09 03:57:24;;;;;;;;;;;;;;;0.59;63.84;101248.45;1771435;81;20219;-50
2021/03/09 03:59:53;;;;;;;;;;;;;;;0.55;63.87;101252.83;1772000;81;22821;-50
2021/03/09 04:02:20;;;;;;;;;;;;;;;0.52;63.89;101251.44;1771849;81;20287;-50
2021/03/09 04:04:49;;;;;;;;;;;;;;;0.48;63.89;101256.22;1771892;81;20212;-50
2021/03/09 04:07:26;;;;;;;;;;;;;;;0.45;63.92;101262.77;1771844;81;20220;-50
2021/03/09 04:09:55;;;;;;;;;;;;;;;0.44;63.95;101275.52;1771978;81;20252;-50
2021/03/09 04:12:22;;;;;;;;;;;;;;;0.41;64.03;101264.92;1771845;81;22242;-50
2021/03/09 04:14:50;;;;;;;;;;;;;;;0.38;64.16;101270.16;1771802;81;20276;-51
2021/03/09 04:17:17;;;;;;;;;;;;;;;0.36;64.34;101271.89;1771813;81;20216;-51
2021/03/09 04:19:46;;;;;;;;;;;;;;;0.32;64.27;101273.98;1771868;81;20545;-50
2021/03/09 04:22:14;;;;;;;;;;;;;;;0.30;64.53;101279.67;1771856;81;20244;-50
2021/03/09 04:24:41;;;;;;;;;;;;;;;0.26;64.68;101280.08;1771062;81;22209;-50
2021/03/09 04:27:20;;;;;;;;;;;;;;;0.23;64.71;101281.36;1771793;81;20223;-52
2021/03/09 04:29:39;;;;;;;;;;;;;;;0.21;64.80;101280.00;1770286;81;20240;-50
2021/03/09 04:32:07;;;;;;;;;;;;;;;0.18;64.97;101283.91;1771795;81;20232;-50
2021/03/09 04:34:35;;;;;;;;;;;;;;;0.12;64.85;101299.19;1770952;81;20237;-50
2021/03/09 04:37:02;;;;;;;;;;;;;;;0.09;65.01;101289.02;1771834;81;21761;-50
2021/03/09 04:39:29;;;;;;;;;;;;;;;0.06;65.05;101294.23;1771683;81;20216;-51
2021/03/09 04:41:56;;;;;;;;;;;;;;;0.03;65.10;101308.69;1771141;81;20244;-51
2021/03/09 04:44:24;;;;;;;;;;;;;;;0.01;65.32;101301.19;1773026;81;20228;-50
2021/03/09 04:46:51;;;;;;;;;;;;;;;-0.02;65.53;101305.55;1774832;81;20244;-50
2021/03/09 04:49:19;;;;;;;;;;;;;;;-0.04;65.69;101302.00;1774790;81;21502;-51
2021/03/09 04:51:47;;;;;;;;;;;;;;;-0.04;65.79;101306.38;1771687;81;20212;-51
2021/03/09 04:54:14;;;;;;;;;;;;;;;-0.03;65.90;101307.73;1766094;81;20244;-51
2021/03/09 04:56:41;;;;;;;;;;;;;;;-0.04;66.06;101308.59;1766188;81;20232;-51
2021/03/09 04:59:08;;;;;;;;;;;;;;;-0.06;66.16;101305.05;1766143;81;20219;-51
2021/03/09 05:01:36;;;;;;;;;;;;;;;-0.09;66.42;101314.22;1766113;81;21230;-51
2021/03/09 05:04:04;;;;;;;;;;;;;;;-0.10;66.55;101317.72;1740968;81;20220;-51
2021/03/09 05:06:31;;;;;;;;;;;;;;;-0.05;66.58;101312.09;1766083;81;20224;-50
2021/03/09 05:08:58;;;;;;;;;;;;;;;0.02;66.48;101316.14;1766167;81;20232;-51
2021/03/09 05:11:30;;;;;;;;;;;;;;;0.07;66.36;101319.33;1765967;81;20229;-51
2021/03/09 05:13:58;;;;;;;;;;;;;;;0.13;66.19;101330.42;1766126;81;21469;-52
2021/03/09 05:16:25;;;;;;;;;;;;;;;0.18;66.20;101335.34;1766022;81;20224;-51
2021/03/09 05:18:53;;;;;;;;;;;;;;;0.25;66.11;101333.25;1766036;81;20232;-51
2021/03/09 05:21:20;;;;;;;;;;;;;;;0.38;65.97;101338.75;1766104;81;20440;-51
2021/03/09 05:23:48;;;;;;;;;;;;;;;0.49;65.71;101337.60;1766095;81;20216;-51
2021/03/09 05:26:15;;;;;;;;;;;;;;;0.62;65.40;101337.36;1766162;81;21234;-51
2021/03/09 05:28:42;;;;;;;;;;;;;;;0.77;65.08;101342.85;1766091;81;20212;-51
2021/03/09 05:31:10;;;;;;;;;;;;;;;0.90;64.63;101340.41;1766104;81;20279;-53
2021/03/09 05:33:37;;;;;;;;;;;;;;;1.00;64.39;101350.25;1765984;81;20235;-52
2021/03/09 05:36:06;;;;;;;;;;;;;;;1.11;63.98;101348.63;1766133;81;20244;-52
2021/03/09 05:38:33;;;;;;;;;;;;;;;1.22;63.51;101362.44;1766092;81;21213;-52
2021/03/09 05:41:00;;;;;;;;;;;;;;;1.28;63.09;101358.55;1766244;81;21010;-51
2021/03/09 05:43:29;;;;;;;;;;;;;;;1.35;62.85;101358.20;1765623;81;20311;-51
2021/03/09 05:45:57;;;;;;;;;;;;;;;1.42;62.78;101365.33;1758066;81;20908;-50
2021/03/09 05:48:25;;;;;;;;;;;;;;;1.54;62.43;101369.88;1758034;81;20221;-52
2021/03/09 05:50:53;;;;;;;;;;;;;;;1.71;61.68;101378.91;1757976;81;21393;-51
2021/03/09 05:53:22;;;;;;;;;;;;;;;1.89;61.19;101378.67;1769377;80;20216;-51
2021/03/09 05:55:49;;;;;;;;;;;;;;;2.20;60.49;101378.07;1771179;81;20212;-50
2021/03/09 05:58:16;;;;;;;;;;;;;;;2.61;59.25;101378.02;1771285;81;20282;-52
2021/03/09 06:00:44;;;;;;;;;;;;;;;2.72;58.19;101385.17;1771189;81;20266;-52
2021/03/09 06:03:11;;;;;;;;;;;;;;;2.70;57.80;101389.98;1771310;81;21371;-52
2021/03/09 06:05:38;;;;;;;;;;;;;;;2.61;57.92;101394.77;1771167;81;20135;-52
2021/03/09 06:08:06;;;;;;;;;;;;;;;2.58;58.02;101405.34;1771231;81;20220;-52
2021/03/09 06:10:35;;;;;;;;;;;;;;;2.52;57.79;101407.48;1770951;81;20217;-51
2021/03/09 06:13:02;;;;;;;;;;;;;;;2.44;57.96;101411.84;1771216;81;20238;-52
2021/03/09 06:15:30;;;;;;;;;;;;;;;2.39;57.88;101407.81;1771297;81;21455;-51
2021/03/09 06:17:58;;;;;;;;;;;;;;;2.35;58.03;101411.77;1771164;81;20232;-52
2021/03/09 06:20:30;;;;;;;;;;;;;;;2.37;57.99;101415.31;1771346;81;20133;-51
2021/03/09 06:22:58;;;;;;;;;;;;;;;2.36;58.05;101410.89;1771186;81;20216;-52
2021/03/09 06:25:32;;;;;;;;;;;;;;;2.37;58.36;101416.63;1771359;81;20472;-51
2021/03/09 06:28:03;;;;;;;;;;;;;;;2.42;57.78;101420.20;1771194;81;21374;-51
2021/03/09 06:30:39;;;;;;;;;;;;;;;2.49;57.79;101425.12;1771138;81;20321;-51
2021/03/09 06:33:07;;;;;;;;;;;;;;;2.52;57.82;101436.61;1771143;81;20224;-52
2021/03/09 06:35:43;;;;;;;;;;;;;;;2.56;57.73;101431.82;1771208;81;20219;-53
2021/03/09 06:38:22;;;;;;;;;;;;;;;2.53;57.82;101437.05;1771305;81;20287;-52
2021/03/09 06:41:18;;;;;;;;;;;;;;;2.56;57.83;101429.59;1771216;81;21671;-52
2021/03/09 06:43:45;;;;;;;;;;;;;;;2.60;57.74;101436.69;1771181;81;20479;-52
2021/03/09 06:46:13;;;;;;;;;;;;;;;2.64;57.83;101435.83;1771495;81;20491;-52
2021/03/09 06:48:42;;;;;;;;;;;;;;;2.77;57.58;101442.16;1765659;81;20996;-51
2021/03/09 06:51:28;;;;;;;;;;;;;;;2.80;56.70;101442.59;1763563;79;20550;-51
2021/03/09 06:54:07;;;;;;;;;;;;;;;2.83;56.77;101437.31;1748174;80;21290;-52
2021/03/09 06:56:42;;;;;;;;;;;;;;;2.95;56.66;101440.50;1765477;80;20228;-50
2021/03/09 06:59:32;;;;;;;;;;;;;;;3.03;56.16;101440.14;1776265;80;20267;-52
2021/03/09 07:02:17;;;;;;;;;;;;;;;3.07;55.98;101445.91;1749199;80;20265;-51
2021/03/09 07:04:49;;;;;;;;;;;;;;;3.12;55.51;101445.49;1776519;80;20228;-51
2021/03/09 07:07:31;;;;;;;;;;;;;;;3.17;55.50;101448.61;1754155;80;22381;-51
2021/03/09 07:10:04;;;;;;;;;;;;;;;3.24;54.84;101446.47;1758222;81;20694;-51
2021/03/09 07:12:32;;;;;;;;;;;;;;;3.29;53.92;101444.73;1758452;81;20284;-51
2021/03/09 07:15:00;;;;;;;;;;;;;;;3.28;53.87;101445.16;1758541;81;20284;-51
2021/03/09 07:17:31;;;;;;;;;;;;;;;3.28;54.00;101444.28;1758604;81;20241;-52
2021/03/09 07:20:00;;;;;;;;;;;;;;;3.28;53.71;101446.94;1757944;81;21263;-52
2021/03/09 07:22:30;;;;;;;;;;;;;;;3.24;53.35;101446.02;1754379;81;20229;-52
2021/03/09 07:25:16;;;;;;;;;;;;;;;3.25;52.99;101443.81;1758786;81;20295;-51
2021/03/09 07:28:00;;;;;;;;;;;;;;;3.33;53.16;101451.81;1758674;81;20213;-52
2021/03/09 07:30:30;;;;;;;;;;;;;;;3.39;54.23;101445.22;1758748;81;20220;-50
2021/03/09 07:32:58;;;;;;;;;;;;;;;3.41;54.26;101447.44;1758640;81;22015;-51
2021/03/09 07:35:30;;;;;;;;;;;;;;;3.40;54.08;101454.07;1758603;81;20221;-52
2021/03/09 07:37:59;;;;;;;;;;;;;;;3.36;54.22;101455.80;1757779;81;20141;-51
2021/03/09 07:40:28;;;;;;;;;;;;;;;3.35;54.14;101456.69;1758602;81;20232;-51
2021/03/09 07:42:56;;;;;;;;;;;;;;;3.39;54.23;101465.09;1758625;81;20245;-51
2021/03/09 07:45:29;;;;;;;;;;;;;;;3.44;53.95;101470.02;1752839;81;21202;-51
2021/03/09 07:47:56;;;;;;;;;;;;;;;3.48;53.85;101470.03;1744251;82;20226;-52
2021/03/09 07:50:24;;;;;;;;;;;;;;;3.50;53.70;101465.62;1787852;80;20206;-52
2021/03/09 07:53:20;;;;;;;;;;;;;;;3.51;54.06;101462.95;1775447;80;20265;-52
2021/03/09 07:55:49;;;;;;;;;;;;;;;3.57;53.49;101462.11;1773441;81;20331;-52
2021/03/09 07:58:24;;;;;;;;;;;;;;;3.53;52.88;101465.18;1773500;81;21549;-51
2021/03/09 08:01:06;;;;;;;;;;;;;;;3.44;52.61;101470.02;1773420;81;20277;-55
2021/03/09 08:03:35;;;;;;;;;;;;;;;3.40;52.65;101466.88;1773089;80;20242;-51
2021/03/09 08:06:11;;;;;;;;;;;;;;;3.42;51.80;101462.46;1773419;81;20272;-52
2021/03/09 08:08:50;;;;;;;;;;;;;;;3.46;51.43;101464.70;1773369;81;20230;-52
2021/03/09 08:11:28;;;;;;;;;;;;;;;3.49;51.58;101465.17;1773255;81;21703;-52
2021/03/09 08:14:08;;;;;;;;;;;;;;;3.58;51.64;101465.21;1773158;80;20214;-52
2021/03/09 08:16:47;;;;;;;;;;;;;;;3.69;51.40;101463.95;1773475;81;20234;-51
2021/03/09 08:19:38;;;;;;;;;;;;;;;3.80;51.35;101467.55;1773539;81;20270;-52
2021/03/09 08:22:06;;;;;;;;;;;;;;;3.84;51.08;101477.72;1773458;81;20218;-52
2021/03/09 08:24:45;;;;;;;;;;;;;;;3.83;51.28;101474.19;1773589;81;22327;-52
2021/03/09 08:27:31;;;;;;;;;;;;;;;3.91;51.31;101478.21;1773412;81;20218;-51
2021/03/09 08:30:28;;;;;;;;;;;;;;;3.93;51.58;101476.45;1773448;81;20214;-51
2021/03/09 08:33:16;;;;;;;;;;;;;;;3.89;51.71;101477.32;1773492;81;20219;-51
2021/03/09 08:35:46;;;;;;;;;;;;;;;3.70;51.94;101466.62;1776984;79;20234;-51
2021/03/09 08:38:14;;;;;;;;;;;;;;;3.74;52.24;101464.84;1779586;79;22206;-51
2021/03/09 08:41:01;;;;;;;;;;;;;;;3.89;52.40;101466.70;1773328;81;20719;-52
2021/03/09 08:43:29;;;;;;;;;;;;;;;4.08;51.80;101460.11;1772783;80;20135;-51
2021/03/09 08:45:57;;;;;;;;;;;;;;;4.30;51.22;101462.41;1766652;81;20383;-51
2021/03/09 08:48:45;;;;;;;;;;;;;;;4.50;50.24;101464.22;1766586;81;20216;-51
2021/03/09 08:51:43;;;;;;;;;;;;;;;4.55;49.34;101471.33;1766687;81;21372;-52
2021/03/09 08:54:25;;;;;;;;;;;;;;;4.51;49.14;101472.17;1727168;83;20226;-51
2021/03/09 08:56:54;;;;;;;;;;;;;;;4.40;49.29;101480.12;1736935;82;20220;-52
2021/03/09 08:59:25;;;;;;;;;;;;;;;4.43;49.77;101482.81;1766616;81;20221;-52
2021/03/09 09:01:53;;;;;;;;;;;;;;;4.58;49.89;101488.59;1766661;81;20225;-52
2021/03/09 09:04:21;;;;;;;;;;;;;;;4.73;49.47;101490.80;1766707;81;21966;-52
2021/03/09 09:06:49;;;;;;;;;;;;;;;4.82;48.83;101492.16;1759337;81;20295;-52
2021/03/09 09:09:38;;;;;;;;;;;;;;;4.80;48.64;101489.95;1736893;82;20273;-52
2021/03/09 09:12:29;;;;;;;;;;;;;;;4.74;48.73;101492.57;1736754;82;37769;-53
2021/03/09 09:15:01;;;;;;;;;;;;;;;4.62;49.07;101489.92;1737475;81;20289;-53
2021/03/09 09:17:29;;;;;;;;;;;;;;;4.50;49.62;101494.30;1750246;81;21219;-51
2021/03/09 09:19:58;;;;;;;;;;;;;;;4.38;49.81;101490.31;1765135;81;20221;-51
2021/03/09 09:22:26;;;;;;;;;;;;;;;4.31;50.38;101496.04;1757980;81;20303;-51
2021/03/09 09:24:56;;;;;;;;;;;;;;;4.32;50.76;101499.59;1753483;81;20212;-52
2021/03/09 09:27:24;;;;;;;;;;;;;;;4.34;51.12;101496.05;1741020;81;20222;-59
2021/03/09 09:29:55;;;;;;;;;;;;;;;4.38;51.05;101493.84;1736834;82;21372;-59
2021/03/09 09:32:23;;;;;;;;;;;;;;;4.34;50.69;101486.75;1736851;82;20223;-59
2021/03/09 09:34:58;;;;;;;;;;;;;;;4.23;50.72;101488.05;1736962;82;20618;-60
2021/03/09 09:37:30;;;;;;;;;;;;;;;4.14;50.95;101496.86;1741802;81;20219;-59
2021/03/09 09:40:01;;;;;;;;;;;;;;;4.14;51.38;101495.99;1736930;82;20239;-60
2021/03/09 09:42:28;;;;;;;;;;;;;;;4.20;51.55;101490.70;1736908;82;21650;-60
2021/03/09 09:44:55;;;;;;;;;;;;;;;4.33;51.71;101485.44;1756922;81;20223;-59
2021/03/09 09:47:23;;;;;;;;;;;;;;;4.47;51.43;101496.96;1764447;81;20224;-59
2021/03/09 09:49:50;;;;;;;;;;;;;;;4.56;51.41;101494.34;1767387;81;20285;-59
2021/03/09 09:52:19;;;;;;;;;;;;;;;4.58;51.19;101505.86;1767422;81;20302;-60
2021/03/09 09:54:54;;;;;;;;;;;;;;;4.53;51.43;101498.33;1775303;80;21213;-59
2021/03/09 09:57:22;;;;;;;;;;;;;;;4.46;51.60;101497.84;1776053;80;20642;-60
2021/03/09 09:59:50;;;;;;;;;;;;;;;4.33;51.67;101501.37;1776030;80;20263;-60
2021/03/09 10:02:20;;;;;;;;;;;;;;;4.26;51.90;101501.78;1776137;80;20220;-59
2021/03/09 10:04:50;;;;;;;;;;;;;;;4.23;52.12;101496.02;1776028;80;20258;-59
2021/03/09 10:07:20;;;;;;;;;;;;;;;4.20;52.27;101507.95;1776251;80;22237;-60
2021/03/09 10:10:05;;;;;;;;;;;;;;;4.13;52.25;101498.20;1776121;80;20216;-59
2021/03/09 10:12:39;;;;;;;;;;;;;;;3.99;52.60;101497.69;1775977;80;20233;-60
2021/03/09 10:15:07;;;;;;;;;;;;;;;3.90;53.00;101491.45;1776133;80;20224;-59
2021/03/09 10:17:35;;;;;;;;;;;;;;;3.93;53.46;101493.70;1776284;81;20404;-59
2021/03/09 10:20:06;;;;;;;;;;;;;;;3.99;53.55;101492.39;1776233;81;21377;-59
2021/03/09 10:22:33;;;;;;;;;;;;;;;4.00;53.33;101488.85;1775755;80;20137;-59
2021/03/09 10:25:10;;;;;;;;;;;;;;;4.00;53.27;101498.59;1776310;80;20168;-60
2021/03/09 10:27:37;;;;;;;;;;;;;;;3.96;53.52;101497.69;1776310;80;20212;-59
2021/03/09 10:30:06;;;;;;;;;;;;;;;3.94;53.41;101499.45;1776347;80;20218;-59
2021/03/09 10:32:47;;;;;;;;;;;;;;;3.93;53.62;101497.67;1776182;80;21197;-60
2021/03/09 10:35:16;;;;;;;;;;;;;;;3.96;53.54;101496.78;1776286;80;20220;-60
2021/03/09 10:37:44;;;;;;;;;;;;;;;3.89;53.61;101487.94;1776236;80;20212;-60
2021/03/09 10:40:13;;;;;;;;;;;;;;;3.84;53.67;101479.05;1776346;80;20235;-60
2021/03/09 10:42:49;;;;;;;;;;;;;;;3.84;53.77;101481.70;1776326;80;20271;-60
2021/03/09 10:45:20;;;;;;;;;;;;;;;3.80;53.94;101477.27;1751533;80;21334;-60
2021/03/09 10:47:52;;;;;;;;;;;;;;;3.76;54.14;101474.16;1745605;82;20646;-58
2021/03/09 10:50:22;;;;;;;;;;;;;;;3.76;54.28;101471.50;1745551;82;20226;-60
2021/03/09 10:52:49;;;;;;;;;;;;;;;3.77;54.30;101470.62;1745564;82;21272;-59
2021/03/09 10:55:17;;;;;;;;;;;;;;;3.79;54.47;101463.55;1747714;80;20218;-60
2021/03/09 10:57:44;;;;;;;;;;;;;;;3.79;54.81;101467.53;1745546;80;21221;-59
2021/03/09 11:00:13;;;;;;;;;;;;;;;3.85;54.83;101468.88;1745363;82;20241;-59
2021/03/09 11:02:41;;;;;;;;;;;;;;;3.94;54.93;101472.02;1747541;80;20269;-59
2021/03/09 11:05:10;;;;;;;;;;;;;;;3.97;54.66;101470.27;1748730;80;20273;-60
2021/03/09 11:07:37;;;;;;;;;;;;;;;4.01;54.88;101469.39;1760610;80;20499;-60
2021/03/09 11:10:06;;;;;;;;;;;;;;;4.05;55.14;101469.40;1748035;80;21644;-58
2021/03/09 11:12:33;;;;;;;;;;;;;;;4.05;54.94;101464.09;1751240;80;20279;-60
2021/03/09 11:15:00;;;;;;;;;;;;;;;3.99;55.01;101466.31;1769335;80;20281;-60
2021/03/09 11:17:28;;;;;;;;;;;;;;;3.94;55.23;101466.28;1756150;80;20309;-59
2021/03/09 11:19:58;;;;;;;;;;;;;;;3.87;55.07;101461.38;1742692;82;20222;-58
2021/03/09 11:22:27;;;;;;;;;;;;;;;3.79;55.32;101461.80;1761634;80;21223;-59
2021/03/09 11:24:55;;;;;;;;;;;;;;;3.71;55.69;101463.09;1749342;80;20222;-59
2021/03/09 11:27:22;;;;;;;;;;;;;;;3.65;55.90;101455.11;1745628;80;20246;-59
2021/03/09 11:29:49;;;;;;;;;;;;;;;3.59;56.30;101456.38;1752421;80;20224;-61
2021/03/09 11:32:17;;;;;;;;;;;;;;;3.58;56.57;101457.26;1753214;80;20214;-59
2021/03/09 11:34:45;;;;;;;;;;;;;;;3.58;56.55;101455.93;1769991;80;21203;-60
2021/03/09 11:37:13;;;;;;;;;;;;;;;3.53;56.63;101445.75;1762097;80;20218;-62
2021/03/09 11:39:41;;;;;;;;;;;;;;;3.43;56.98;101444.38;1758444;80;20276;-60
2021/03/09 11:42:09;;;;;;;;;;;;;;;3.36;57.43;101441.69;1745292;82;20246;-59
2021/03/09 11:44:36;;;;;;;;;;;;;;;3.34;57.84;101448.28;1751377;80;20243;-59
2021/03/09 11:47:03;;;;;;;;;;;;;;;3.36;58.27;101445.66;1745353;82;21594;-60
2021/03/09 11:49:31;;;;;;;;;;;;;;;3.36;58.33;101442.55;1752935;80;20221;-59
2021/03/09 11:51:59;;;;;;;;;;;;;;;3.37;58.44;101440.80;1767011;80;20231;-60
2021/03/09 11:54:29;;;;;;;;;;;;;;;3.40;58.58;101439.03;1769647;80;20244;-60
2021/03/09 11:56:57;;;;;;;;;;;;;;;3.43;58.91;101443.06;1726896;82;20242;-59
2021/03/09 11:59:25;;;;;;;;;;;;;;;3.48;59.07;101449.69;1760988;80;21183;-59
2021/03/09 12:01:52;;;;;;;;;;;;;;;3.53;58.93;101452.38;1767267;80;20208;-59
2021/03/09 12:04:20;;;;;;;;;;;;;;;3.58;58.88;101449.30;1763035;80;20483;-59
2021/03/09 12:06:51;;;;;;;;;;;;;;;3.63;58.55;101450.66;1774700;80;21744;-60
2021/03/09 12:09:22;;;;;;;;;;;;;;;3.65;58.47;101453.78;1762668;80;20210;-59
2021/03/09 12:11:50;;;;;;;;;;;;;;;3.67;58.19;101452.44;1745521;82;21705;-60
2021/03/09 12:14:17;;;;;;;;;;;;;;;3.66;58.12;101455.55;1745254;82;20234;-58
2021/03/09 12:16:44;;;;;;;;;;;;;;;3.67;58.03;101457.33;1745148;82;20226;-61
2021/03/09 12:19:12;;;;;;;;;;;;;;;3.68;58.16;101458.19;1745368;82;20347;-59
2021/03/09 12:21:39;;;;;;;;;;;;;;;3.70;58.35;101455.11;1745438;82;20226;-60
2021/03/09 12:24:07;;;;;;;;;;;;;;;3.74;58.40;101452.91;1745487;82;21700;-60
2021/03/09 12:26:34;;;;;;;;;;;;;;;3.81;58.34;101464.02;1764472;80;20498;-59
2021/03/09 12:29:02;;;;;;;;;;;;;;;3.85;58.14;101470.20;1745362;82;20218;-60
2021/03/09 12:31:31;;;;;;;;;;;;;;;3.82;57.68;101467.11;1757362;80;20216;-59
2021/03/09 12:33:59;;;;;;;;;;;;;;;3.79;57.49;101470.18;1766341;79;20223;-61
2021/03/09 12:36:55;;;;;;;4.37;2.53;;;;;;;3.82;57.74;101467.53;1835926;78;23121;-62
2021/03/09 12:39:22;;;;;;;5.47;2.98;;;;;;;3.76;57.94;101472.83;1803974;79;21609;-61
2021/03/09 12:41:50;;;;;;;7.95;3.10;;;;;;;3.77;58.23;101473.27;1723892;83;22076;-59
2021/03/09 12:44:18;;;;;;;8.93;2.87;;;;;;;3.77;58.21;101470.20;1741757;81;21088;-60
2021/03/09 12:46:45;;;;;;;5.87;3.02;;;;;;;3.75;58.01;101472.38;1694980;84;21060;-59
2021/03/09 12:49:13;;;;;;;6.30;2.70;;;;;;;3.71;58.05;101475.02;1724138;83;21004;-63
2021/03/09 12:51:41;;;;;;;5.35;2.70;;;;;;;3.72;57.90;101476.80;1724228;83;21021;-61
2021/03/09 12:54:10;;;;;;;5.12;2.40;;;;;;;3.72;57.71;101478.55;1724154;83;21216;-61
2021/03/09 12:56:38;;;;;;;6.22;2.60;;;;;;;3.73;57.79;101471.94;1724100;82;21014;-59
2021/03/09 12:59:06;;;;;;;7.33;2.75;;;;;;;3.79;57.88;101476.39;1724173;83;21072;-59